Cochise — WDD8952 — position and weather

sailwx.info

Track history (hours):
 
Tides and Currents Weather Stations Pressure Air Temp Water Temp Dewpoint Dewpoint Depression Visibility Wind Speed Wind Dir Waves Ship Positions

Cochise

Owner: Sause Bros, Coos Bay, OR. More information available from US FCC via Universal Licensing System and Coast Guard Vessel Documentation Center.

Last reported at 2017-Mar-29 08:31 UTC. Time now 2017-Mar-29 09:28 UTC.
Position N 37°55' W 122°22'.

Length 32 m; draft 4.5 m.

Type: Towing. MMSI: 367304990.

Date/timePositionNaut miles runAvg speedWind from/ knotsBaromVisibWave heightAir tempDewpointWater temp
2017-Mar-29 08:31N 37°55' W 122°22'0 0.0
2017-Mar-29 07:31N 37°55' W 122°22'0 0.0
2017-Mar-29 06:31N 37°55' W 122°22'0 0.0
2017-Mar-29 05:31N 37°55' W 122°22'1 0.8
2017-Mar-29 04:33N 37°54' W 122°22'3 3.3
2017-Mar-29 03:33N 37°51' W 122°25'8 8.2
2017-Mar-29 02:33N 37°47' W 122°34'7 7.1
2017-Mar-29 01:33N 37°46' W 122°42'1010.1
2017-Mar-29 00:33N 37°50' W 122°54'1010.2
2017-Mar-28 23:33N 37°55' W 123°06'10 9.7
2017-Mar-28 22:33N 38°01' W 123°15'10 9.5
2017-Mar-28 21:33N 38°09' W 123°23'10 9.6
2017-Mar-28 20:33N 38°17' W 123°29'9 9.2
2017-Mar-28 19:33N 38°25' W 123°35'9 9.1
2017-Mar-28 18:33N 38°33' W 123°41'9 8.7
2017-Mar-28 17:31N 38°40' W 123°47'  
2017-Mar-25 04:25N 38°25' W 123°34'5 5.9
2017-Mar-25 03:33N 38°21' W 123°30'6 6.1
2017-Mar-25 02:33N 38°16' W 123°26'6 6.3
2017-Mar-25 01:33N 38°11' W 123°21'8 7.5
2017-Mar-25 00:33N 38°05' W 123°15'7 7.4
2017-Mar-24 23:33N 37°59' W 123°09'7 7.2
2017-Mar-24 22:33N 37°55' W 123°01'7 6.9
2017-Mar-24 21:33N 37°52' W 122°54'7 7.0
2017-Mar-24 20:33N 37°48' W 122°46'6 6.4
2017-Mar-24 19:33N 37°46' W 122°39'6 6.1
2017-Mar-24 18:33N 37°48' W 122°32'7 7.3
2017-Mar-24 17:33N 37°53' W 122°25'2 2.2
2017-Mar-24 16:33N 37°55' W 122°25'0 0.2
2017-Mar-24 15:30N 37°55' W 122°25'0 0.0
2017-Mar-24 14:33N 37°55' W 122°25'0 0.0
2017-Mar-24 13:33N 37°55' W 122°25'0 0.0
2017-Mar-24 12:33N 37°55' W 122°25'0 0.0
2017-Mar-24 11:33N 37°55' W 122°25'0 0.0
2017-Mar-24 10:33N 37°55' W 122°25'0 0.0
2017-Mar-24 09:33N 37°55' W 122°25'0 0.0
2017-Mar-24 08:33N 37°55' W 122°25'0 0.0
2017-Mar-24 07:33N 37°55' W 122°25'0 0.3
2017-Mar-24 06:32N 37°55' W 122°25'1 0.8
2017-Mar-24 05:33N 37°55' W 122°24'2 2.2
2017-Mar-24 04:33N 37°55' W 122°22'0 0.0
2017-Mar-24 03:33N 37°55' W 122°22'0 0.0
2017-Mar-24 02:33N 37°55' W 122°22'0 0.0
2017-Mar-24 01:33N 37°55' W 122°22'0 0.0
2017-Mar-24 00:33N 37°55' W 122°22'0 0.0
2017-Mar-23 23:33N 37°55' W 122°22'0 0.0
2017-Mar-23 22:33N 37°55' W 122°22'0 0.0
2017-Mar-23 21:30N 37°55' W 122°22'0 0.0
2017-Mar-23 20:33N 37°55' W 122°22'0 0.0
2017-Mar-23 19:33N 37°55' W 122°22'0 0.0
2017-Mar-23 18:33N 37°55' W 122°22'0 0.0
2017-Mar-23 17:33N 37°55' W 122°22'0 0.0
2017-Mar-23 16:33N 37°55' W 122°22'0 0.0
2017-Mar-23 15:33N 37°55' W 122°22'0 0.0
2017-Mar-23 14:33N 37°55' W 122°22'0 0.0
2017-Mar-23 13:33N 37°55' W 122°22'0 0.0
2017-Mar-23 12:33N 37°55' W 122°22'0 0.0
2017-Mar-23 11:33N 37°55' W 122°22'0 0.0
2017-Mar-23 10:33N 37°55' W 122°22'0 0.0
2017-Mar-23 09:33N 37°55' W 122°22'0 0.0
2017-Mar-23 08:33N 37°55' W 122°22'0 0.0
2017-Mar-23 07:33N 37°55' W 122°22'0 0.0
2017-Mar-23 06:33N 37°55' W 122°22'0 0.0
2017-Mar-23 05:33N 37°55' W 122°22'0 0.0
2017-Mar-23 04:33N 37°55' W 122°22'0 0.0
2017-Mar-23 03:33N 37°55' W 122°22'0 0.0
2017-Mar-23 02:33N 37°55' W 122°22'0 0.0
2017-Mar-23 01:33N 37°55' W 122°22'0 0.0
2017-Mar-23 00:33N 37°55' W 122°22'0 0.0
2017-Mar-22 23:33N 37°55' W 122°22'0 0.0
2017-Mar-22 22:33N 37°55' W 122°22'0 0.0
2017-Mar-22 21:33N 37°55' W 122°22'0 0.0
2017-Mar-22 20:33N 37°55' W 122°22'0 0.0
2017-Mar-22 19:33N 37°55' W 122°22'0 0.0
2017-Mar-22 18:30N 37°55' W 122°22'0 0.0
2017-Mar-22 17:33N 37°55' W 122°22'0 0.0
2017-Mar-22 16:30N 37°55' W 122°22'0 0.0
2017-Mar-22 15:33N 37°55' W 122°22'0 0.0
2017-Mar-22 14:33N 37°55' W 122°22'0 0.0
2017-Mar-22 13:33N 37°55' W 122°22'0 0.0
2017-Mar-22 12:30N 37°55' W 122°22'0 0.0
2017-Mar-22 11:33N 37°55' W 122°22'0 0.0
2017-Mar-22 10:33N 37°55' W 122°22'0 0.0
2017-Mar-22 09:33N 37°55' W 122°22'0 0.0
2017-Mar-22 08:30N 37°55' W 122°22'0 0.0
2017-Mar-22 07:33N 37°55' W 122°22'0 0.0
2017-Mar-22 06:34N 37°55' W 122°22'5 4.6
2017-Mar-22 05:34N 37°58' W 122°26'8 8.0
2017-Mar-22 04:34N 38°03' W 122°18'8 0.3
2017-Mar-20 23:33N 38°02' W 122°08'5 5.3
2017-Mar-20 22:32N 38°04' W 122°14'5 4.6
2017-Mar-20 21:33N 38°03' W 122°20'5 5.3
2017-Mar-20 20:33N 37°60' W 122°25'4 4.2
2017-Mar-20 19:33N 37°55' W 122°25'0 0.2
2017-Mar-20 18:32N 37°55' W 122°25'0 0.0
2017-Mar-20 17:32N 37°55' W 122°25'0 0.0
2017-Mar-20 16:26N 37°55' W 122°25'0 0.0
2017-Mar-20 15:32N 37°55' W 122°25'0 0.0
2017-Mar-20 14:32N 37°55' W 122°25'0 0.0
2017-Mar-20 13:32N 37°55' W 122°25'0 0.0
2017-Mar-20 12:29N 37°55' W 122°25'0 0.0
2017-Mar-20 11:26N 37°55' W 122°25'0 0.0
2017-Mar-20 10:26N 37°55' W 122°25'0 0.0
2017-Mar-20 09:26N 37°55' W 122°25'0 0.0
2017-Mar-20 08:32N 37°55' W 122°25'0 0.0
2017-Mar-20 07:32N 37°55' W 122°25'0 0.0
2017-Mar-20 06:32N 37°55' W 122°25'0 0.0
2017-Mar-20 05:32N 37°55' W 122°25'1 1.3
2017-Mar-20 04:34N 37°54' W 122°25'8 7.6
2017-Mar-20 03:34N 37°46' W 122°23'0 0.0
2017-Mar-20 02:34N 37°46' W 122°23'0 0.0
2017-Mar-20 01:34N 37°46' W 122°23'0 0.0
2017-Mar-20 00:33N 37°46' W 122°23'0 0.0
2017-Mar-19 23:34N 37°46' W 122°23'0 0.0
2017-Mar-19 22:33N 37°46' W 122°23'0 0.0
2017-Mar-19 21:34N 37°46' W 122°23'0 0.0
2017-Mar-19 20:34N 37°46' W 122°23'1 0.8
2017-Mar-19 19:33N 37°47' W 122°23'8 8.4
2017-Mar-19 18:34N 37°55' W 122°25'3 2.8
2017-Mar-19 17:34N 37°58' W 122°26'10 9.9
2017-Mar-19 16:34N 38°03' W 122°16'  
Track history (hours):
 
Tides and Currents Weather Stations Pressure Air Temp Water Temp Dewpoint Dewpoint Depression Visibility Wind Speed Wind Dir Waves Ship Positions

Cochise

Owner: Sause Bros, Coos Bay, OR. More information available from US FCC via Universal Licensing System and Coast Guard Vessel Documentation Center.

Last reported at 2017-Mar-29 08:31 UTC. Time now 2017-Mar-29 09:28 UTC.
Position N 37°55' W 122°22'.

Length 32 m; draft 4.5 m.

Type: Towing. MMSI: 367304990.

Date/timePositionNaut miles runAvg speedWind from/ knotsBaromVisibWave heightAir tempDewpointWater temp
2017-Mar-29 08:31N 37°55' W 122°22'0 0.0
2017-Mar-29 07:31N 37°55' W 122°22'0 0.0
2017-Mar-29 06:31N 37°55' W 122°22'0 0.0
2017-Mar-29 05:31N 37°55' W 122°22'1 0.8
2017-Mar-29 04:33N 37°54' W 122°22'3 3.3
2017-Mar-29 03:33N 37°51' W 122°25'8 8.2
2017-Mar-29 02:33N 37°47' W 122°34'7 7.1
2017-Mar-29 01:33N 37°46' W 122°42'1010.1
2017-Mar-29 00:33N 37°50' W 122°54'1010.2
2017-Mar-28 23:33N 37°55' W 123°06'10 9.7
2017-Mar-28 22:33N 38°01' W 123°15'10 9.5
2017-Mar-28 21:33N 38°09' W 123°23'10 9.6
2017-Mar-28 20:33N 38°17' W 123°29'9 9.2
2017-Mar-28 19:33N 38°25' W 123°35'9 9.1
2017-Mar-28 18:33N 38°33' W 123°41'9 8.7
2017-Mar-28 17:31N 38°40' W 123°47'  
2017-Mar-25 04:25N 38°25' W 123°34'5 5.9
2017-Mar-25 03:33N 38°21' W 123°30'6 6.1
2017-Mar-25 02:33N 38°16' W 123°26'6 6.3
2017-Mar-25 01:33N 38°11' W 123°21'8 7.5
2017-Mar-25 00:33N 38°05' W 123°15'7 7.4
2017-Mar-24 23:33N 37°59' W 123°09'7 7.2
2017-Mar-24 22:33N 37°55' W 123°01'7 6.9
2017-Mar-24 21:33N 37°52' W 122°54'7 7.0
2017-Mar-24 20:33N 37°48' W 122°46'6 6.4
2017-Mar-24 19:33N 37°46' W 122°39'6 6.1
2017-Mar-24 18:33N 37°48' W 122°32'7 7.3
2017-Mar-24 17:33N 37°53' W 122°25'2 2.2
2017-Mar-24 16:33N 37°55' W 122°25'0 0.2
2017-Mar-24 15:30N 37°55' W 122°25'0 0.0
2017-Mar-24 14:33N 37°55' W 122°25'0 0.0
2017-Mar-24 13:33N 37°55' W 122°25'0 0.0
2017-Mar-24 12:33N 37°55' W 122°25'0 0.0
2017-Mar-24 11:33N 37°55' W 122°25'0 0.0
2017-Mar-24 10:33N 37°55' W 122°25'0 0.0
2017-Mar-24 09:33N 37°55' W 122°25'0 0.0
2017-Mar-24 08:33N 37°55' W 122°25'0 0.0
2017-Mar-24 07:33N 37°55' W 122°25'0 0.3
2017-Mar-24 06:32N 37°55' W 122°25'1 0.8
2017-Mar-24 05:33N 37°55' W 122°24'2 2.2
2017-Mar-24 04:33N 37°55' W 122°22'0 0.0
2017-Mar-24 03:33N 37°55' W 122°22'0 0.0
2017-Mar-24 02:33N 37°55' W 122°22'0 0.0
2017-Mar-24 01:33N 37°55' W 122°22'0 0.0
2017-Mar-24 00:33N 37°55' W 122°22'0 0.0
2017-Mar-23 23:33N 37°55' W 122°22'0 0.0
2017-Mar-23 22:33N 37°55' W 122°22'0 0.0
2017-Mar-23 21:30N 37°55' W 122°22'0 0.0
2017-Mar-23 20:33N 37°55' W 122°22'0 0.0
2017-Mar-23 19:33N 37°55' W 122°22'0 0.0
2017-Mar-23 18:33N 37°55' W 122°22'0 0.0
2017-Mar-23 17:33N 37°55' W 122°22'0 0.0
2017-Mar-23 16:33N 37°55' W 122°22'0 0.0
2017-Mar-23 15:33N 37°55' W 122°22'0 0.0
2017-Mar-23 14:33N 37°55' W 122°22'0 0.0
2017-Mar-23 13:33N 37°55' W 122°22'0 0.0
2017-Mar-23 12:33N 37°55' W 122°22'0 0.0
2017-Mar-23 11:33N 37°55' W 122°22'0 0.0
2017-Mar-23 10:33N 37°55' W 122°22'0 0.0
2017-Mar-23 09:33N 37°55' W 122°22'0 0.0
2017-Mar-23 08:33N 37°55' W 122°22'0 0.0
2017-Mar-23 07:33N 37°55' W 122°22'0 0.0
2017-Mar-23 06:33N 37°55' W 122°22'0 0.0
2017-Mar-23 05:33N 37°55' W 122°22'0 0.0
2017-Mar-23 04:33N 37°55' W 122°22'0 0.0
2017-Mar-23 03:33N 37°55' W 122°22'0 0.0
2017-Mar-23 02:33N 37°55' W 122°22'0 0.0
2017-Mar-23 01:33N 37°55' W 122°22'0 0.0
2017-Mar-23 00:33N 37°55' W 122°22'0 0.0
2017-Mar-22 23:33N 37°55' W 122°22'0 0.0
2017-Mar-22 22:33N 37°55' W 122°22'0 0.0
2017-Mar-22 21:33N 37°55' W 122°22'0 0.0
2017-Mar-22 20:33N 37°55' W 122°22'0 0.0
2017-Mar-22 19:33N 37°55' W 122°22'0 0.0
2017-Mar-22 18:30N 37°55' W 122°22'0 0.0
2017-Mar-22 17:33N 37°55' W 122°22'0 0.0
2017-Mar-22 16:30N 37°55' W 122°22'0 0.0
2017-Mar-22 15:33N 37°55' W 122°22'0 0.0
2017-Mar-22 14:33N 37°55' W 122°22'0 0.0
2017-Mar-22 13:33N 37°55' W 122°22'0 0.0
2017-Mar-22 12:30N 37°55' W 122°22'0 0.0
2017-Mar-22 11:33N 37°55' W 122°22'0 0.0
2017-Mar-22 10:33N 37°55' W 122°22'0 0.0
2017-Mar-22 09:33N 37°55' W 122°22'0 0.0
2017-Mar-22 08:30N 37°55' W 122°22'0 0.0
2017-Mar-22 07:33N 37°55' W 122°22'0 0.0
2017-Mar-22 06:34N 37°55' W 122°22'5 4.6
2017-Mar-22 05:34N 37°58' W 122°26'8 8.0
2017-Mar-22 04:34N 38°03' W 122°18'8 0.3
2017-Mar-20 23:33N 38°02' W 122°08'5 5.3
2017-Mar-20 22:32N 38°04' W 122°14'5 4.6
2017-Mar-20 21:33N 38°03' W 122°20'5 5.3
2017-Mar-20 20:33N 37°60' W 122°25'4 4.2
2017-Mar-20 19:33N 37°55' W 122°25'0 0.2
2017-Mar-20 18:32N 37°55' W 122°25'0 0.0
2017-Mar-20 17:32N 37°55' W 122°25'0 0.0
2017-Mar-20 16:26N 37°55' W 122°25'0 0.0
2017-Mar-20 15:32N 37°55' W 122°25'0 0.0
2017-Mar-20 14:32N 37°55' W 122°25'0 0.0
2017-Mar-20 13:32N 37°55' W 122°25'0 0.0
2017-Mar-20 12:29N 37°55' W 122°25'0 0.0
2017-Mar-20 11:26N 37°55' W 122°25'0 0.0
2017-Mar-20 10:26N 37°55' W 122°25'0 0.0
2017-Mar-20 09:26N 37°55' W 122°25'0 0.0
2017-Mar-20 08:32N 37°55' W 122°25'0 0.0
2017-Mar-20 07:32N 37°55' W 122°25'0 0.0
2017-Mar-20 06:32N 37°55' W 122°25'0 0.0
2017-Mar-20 05:32N 37°55' W 122°25'1 1.3
2017-Mar-20 04:34N 37°54' W 122°25'8 7.6
2017-Mar-20 03:34N 37°46' W 122°23'0 0.0
2017-Mar-20 02:34N 37°46' W 122°23'0 0.0
2017-Mar-20 01:34N 37°46' W 122°23'0 0.0
2017-Mar-20 00:33N 37°46' W 122°23'0 0.0
2017-Mar-19 23:34N 37°46' W 122°23'0 0.0
2017-Mar-19 22:33N 37°46' W 122°23'0 0.0
2017-Mar-19 21:34N 37°46' W 122°23'0 0.0
2017-Mar-19 20:34N 37°46' W 122°23'1 0.8
2017-Mar-19 19:33N 37°47' W 122°23'8 8.4
2017-Mar-19 18:34N 37°55' W 122°25'3 2.8
2017-Mar-19 17:34N 37°58' W 122°26'10 9.9
2017-Mar-19 16:34N 38°03' W 122°16'  

Dump ship's entire track history